Главная страница
METAR-TAF:

METAR-TAF

Аэропорты :

Саннесшёэн, Норвегия

широта: 65-58N, долгота: 012-28E, высота над уровнем моря: 1 м

Текущие метеонаблюдения

Эта сводка был подготовлена 14 часа и 27 минут назад, в 19:50 UTC
Ветер 26 Узел от южный с порывами до 36 Узел
Температура 7°C
Влажность 70%
Давление 999 hPa
Видимость 10 км и более
небольшая облачность на высоте 1500 фута
Отдельные облака на высоте 2500 фута
Рассеянная облачность на высоте 3500 фута
небольшой дождь

METAR: ENST 221950Z 18026G36KT 9999 -RA FEW015 SCT025 BKN035 07/02 Q0999 RMK WIND 300FT 18032G46KT TURB WRNG - SEE IPPC

Время: 11:17 (10:17 UTC)


TAF: отсутствует

Метеонаблюдения и прогнозы для более 4000 аэропортов (сводки METAR и TAF).

Имеющиеся станции представлены на карте желтыми и красными точками.

Чтобы увидеть название станции, наведите на нее мышь.

Затем щелкните, чтобы увидеть метеонаблюдения и метеопрогнозы.

Управление картой: чтобы увеличить масштаб, щелкните зеленые кнопки с черным крестиком; чтобы уменьшить масштаб, щелкните зеленую кнопку с тире; для просмотра соседних карт щелкайте зеленые стрелки.


METAR-TAF: